createdAt,value
2018-11-03T00:00:33.517Z,6.13
2018-11-03T00:03:01.478Z,4.50
2018-11-03T00:05:29.094Z,4.90
2018-11-03T00:07:57.078Z,5.43
2018-11-03T00:10:25.532Z,4.33
2018-11-03T00:12:53.192Z,5.50
2018-11-03T00:15:21.128Z,5.53
2018-11-03T00:17:48.727Z,5.00
2018-11-03T00:20:16.513Z,6.37
2018-11-03T00:22:44.187Z,6.30
2018-11-03T00:25:11.820Z,5.53
2018-11-03T00:27:39.407Z,4.50
2018-11-03T00:30:10.040Z,4.70
2018-11-03T00:32:37.724Z,5.57
2018-11-03T00:35:05.428Z,4.90
2018-11-03T00:37:33.508Z,4.17
2018-11-03T00:40:01.104Z,5.93
2018-11-03T00:42:28.761Z,5.97
2018-11-03T00:44:57.033Z,5.07
2018-11-03T00:47:24.613Z,5.10
2018-11-03T00:49:52.234Z,6.53
2018-11-03T00:52:19.784Z,4.47
2018-11-03T00:54:47.427Z,4.10
2018-11-03T00:57:15.234Z,4.40
2018-11-03T00:59:43.024Z,4.17
2018-11-03T01:02:10.541Z,4.70
2018-11-03T01:04:38.745Z,4.83
2018-11-03T01:07:06.346Z,5.10
2018-11-03T01:09:33.932Z,4.23
2018-11-03T01:12:01.753Z,3.93
2018-11-03T01:14:29.397Z,4.10
2018-11-03T01:16:56.980Z,3.97
2018-11-03T01:19:25.071Z,5.60
2018-11-03T01:21:52.639Z,4.20
2018-11-03T01:24:20.387Z,4.57
2018-11-03T01:26:47.980Z,4.33
2018-11-03T01:29:15.834Z,5.33
2018-11-03T01:31:43.567Z,4.57
2018-11-03T01:34:11.100Z,4.80
2018-11-03T01:36:39.042Z,5.93
2018-11-03T01:39:09.137Z,5.00
2018-11-03T01:41:36.815Z,5.30
2018-11-03T01:44:04.810Z,4.67
2018-11-03T01:46:32.617Z,6.00
2018-11-03T01:49:00.197Z,4.93
2018-11-03T01:51:28.107Z,3.83
2018-11-03T01:53:55.983Z,5.13
2018-11-03T01:56:23.602Z,4.20
2018-11-03T01:59:22.077Z,4.40
2018-11-03T02:01:50.279Z,5.03
2018-11-03T02:04:17.957Z,6.73
2018-11-03T02:06:45.790Z,5.13
2018-11-03T02:09:13.325Z,5.73
2018-11-03T02:11:40.964Z,5.17
2018-11-03T02:14:08.747Z,4.00
2018-11-03T02:16:37.174Z,4.13
2018-11-03T02:19:04.803Z,4.43
2018-11-03T02:21:33.073Z,4.13
2018-11-03T02:24:05.010Z,4.30
2018-11-03T02:26:33.119Z,5.27
2018-11-03T02:29:00.692Z,4.47
2018-11-03T02:31:28.317Z,4.30
2018-11-03T02:33:56.221Z,4.00
2018-11-03T02:36:23.758Z,3.97
2018-11-03T02:38:51.316Z,4.13
2018-11-03T02:41:19.168Z,3.27
2018-11-03T02:43:47.326Z,4.20
2018-11-03T02:46:14.931Z,3.60
2018-11-03T02:48:42.607Z,4.57
2018-11-03T02:51:10.441Z,4.13
2018-11-03T02:53:38.268Z,3.27
2018-11-03T02:56:06.167Z,3.40
2018-11-03T02:58:33.721Z,3.33
2018-11-03T03:01:01.620Z,6.07
2018-11-03T03:03:29.219Z,3.80
2018-11-03T03:05:56.826Z,3.23
2018-11-03T03:08:24.543Z,4.40
2018-11-03T03:10:52.175Z,3.27
2018-11-03T03:13:19.712Z,3.60
2018-11-03T03:15:47.336Z,3.83
2018-11-03T03:18:21.696Z,3.67
2018-11-03T03:20:49.347Z,3.40
2018-11-03T03:23:16.914Z,4.40
2018-11-03T03:25:44.537Z,4.27
2018-11-03T03:28:12.168Z,4.13
2018-11-03T03:30:39.756Z,4.60
2018-11-03T03:33:07.302Z,4.13
2018-11-03T03:35:35.405Z,4.97
2018-11-03T03:38:03.001Z,4.83
2018-11-03T03:40:30.521Z,4.53
2018-11-03T03:42:58.384Z,4.40
2018-11-03T03:45:25.917Z,4.20
2018-11-03T03:47:53.624Z,3.90
2018-11-03T03:50:21.491Z,3.83
2018-11-03T03:52:49.134Z,3.97
2018-11-03T03:55:16.720Z,4.40
2018-11-03T03:57:44.590Z,4.10
2018-11-03T04:00:12.744Z,4.97
2018-11-03T04:02:40.682Z,4.40
2018-11-03T04:05:08.867Z,4.53
2018-11-03T04:07:36.479Z,4.23
2018-11-03T04:10:05.201Z,4.27
2018-11-03T04:12:33.085Z,3.90
2018-11-03T04:15:00.622Z,4.27
2018-11-03T04:17:28.192Z,6.10
2018-11-03T04:19:55.951Z,4.07
2018-11-03T04:22:23.546Z,3.90
2018-11-03T04:24:51.067Z,5.97
2018-11-03T04:27:19.337Z,4.43
2018-11-03T04:29:46.949Z,4.33
2018-11-03T04:32:14.539Z,5.47
2018-11-03T04:34:42.356Z,3.77
2018-11-03T04:37:09.913Z,3.73
2018-11-03T04:39:37.803Z,3.77
2018-11-03T04:42:05.361Z,4.10
2018-11-03T04:44:32.974Z,4.30
2018-11-03T04:47:05.808Z,4.03
2018-11-03T04:49:34.069Z,5.40
2018-11-03T04:52:06.854Z,4.47
2018-11-03T04:54:34.460Z,4.17
2018-11-03T04:57:07.342Z,4.13
2018-11-03T04:59:34.883Z,4.17
2018-11-03T05:02:02.477Z,4.20
2018-11-03T05:04:30.259Z,4.00
2018-11-03T05:06:57.777Z,4.37
2018-11-03T05:09:25.742Z,4.10
2018-11-03T05:11:53.239Z,4.67
2018-11-03T05:14:20.848Z,4.67
2018-11-03T05:16:48.731Z,5.13
2018-11-03T05:19:16.305Z,5.27
2018-11-03T05:21:43.835Z,5.80
2018-11-03T05:24:11.676Z,5.03
2018-11-03T05:26:39.164Z,4.23
2018-11-03T05:29:07.186Z,5.40
2018-11-03T05:31:35.077Z,5.50
2018-11-03T05:34:03.584Z,4.27
2018-11-03T05:36:31.229Z,5.33
2018-11-03T05:38:59.051Z,4.90
2018-11-03T05:41:26.617Z,4.40
2018-11-03T05:43:54.543Z,5.50
2018-11-03T05:46:22.197Z,5.63
2018-11-03T05:48:49.652Z,6.70
2018-11-03T05:51:17.287Z,5.27
2018-11-03T05:53:44.845Z,5.33
2018-11-03T05:56:13.009Z,5.40
2018-11-03T05:58:40.877Z,5.20
2018-11-03T06:01:08.413Z,5.80
2018-11-03T06:03:36.029Z,5.10
2018-11-03T06:06:04.164Z,4.97
2018-11-03T06:08:31.779Z,5.77
2018-11-03T06:10:59.331Z,4.43
2018-11-03T06:13:27.178Z,5.70
2018-11-03T06:15:54.750Z,4.50
2018-11-03T06:18:22.324Z,6.03
2018-11-03T06:20:50.168Z,6.10
2018-11-03T06:23:17.766Z,4.90
2018-11-03T06:25:45.473Z,6.17
2018-11-03T06:28:13.259Z,6.10
2018-11-03T06:30:43.150Z,5.67
2018-11-03T06:33:10.721Z,4.60
2018-11-03T06:35:38.268Z,5.10
2018-11-03T06:38:06.097Z,4.77
2018-11-03T06:40:33.664Z,6.90
2018-11-03T06:43:01.285Z,6.47
2018-11-03T06:45:29.092Z,4.90
2018-11-03T06:47:56.825Z,5.43
2018-11-03T06:50:24.468Z,5.13
2018-11-03T06:52:52.413Z,4.93
2018-11-03T06:55:20.029Z,4.80
2018-11-03T06:57:47.579Z,4.33
2018-11-03T07:00:15.356Z,4.70
2018-11-03T07:02:42.960Z,5.30
2018-11-03T07:05:10.583Z,4.87
2018-11-03T07:07:38.621Z,4.83
2018-11-03T07:10:07.130Z,4.87
2018-11-03T07:12:34.836Z,4.93
2018-11-03T07:15:02.772Z,5.63
2018-11-03T07:17:30.315Z,5.00
2018-11-03T07:19:57.900Z,5.03
2018-11-03T07:22:25.680Z,6.37
2018-11-03T07:24:53.346Z,4.93
2018-11-03T07:27:20.928Z,5.80
2018-11-03T07:29:48.975Z,4.97
2018-11-03T07:32:16.473Z,5.00
2018-11-03T07:34:44.052Z,7.10
2018-11-03T07:37:12.739Z,5.40
2018-11-03T07:39:40.317Z,5.50
2018-11-03T07:42:07.891Z,4.80
2018-11-03T07:44:35.780Z,5.10
2018-11-03T07:47:03.411Z,6.33
2018-11-03T07:49:31.179Z,5.27
2018-11-03T07:51:58.872Z,5.80
2018-11-03T07:54:26.539Z,5.47
2018-11-03T07:56:54.318Z,5.00
2018-11-03T07:59:22.677Z,5.23
2018-11-03T08:01:51.222Z,7.17
2018-11-03T08:04:19.067Z,5.90
2018-11-03T08:06:47.367Z,5.70
2018-11-03T08:09:15.256Z,6.17
2018-11-03T08:11:42.860Z,5.73
2018-11-03T08:14:10.611Z,5.37
2018-11-03T08:16:38.929Z,6.50
2018-11-03T08:19:06.938Z,5.93
2018-11-03T08:21:34.628Z,5.83
2018-11-03T08:24:03.000Z,7.40
2018-11-03T08:26:30.394Z,5.83
2018-11-03T08:29:36.470Z,5.93
2018-11-03T08:32:34.645Z,5.50
2018-11-03T08:35:13.498Z,5.13
2018-11-03T08:37:49.150Z,5.57
2018-11-03T08:40:18.585Z,5.37
2018-11-03T08:42:46.482Z,6.00
2018-11-03T08:45:14.371Z,6.13
2018-11-03T08:47:42.602Z,6.30
2018-11-03T08:50:11.894Z,5.47
2018-11-03T08:52:39.796Z,6.37
2018-11-03T08:55:10.020Z,5.80
2018-11-03T08:57:37.906Z,6.00
2018-11-03T09:00:10.164Z,5.63
2018-11-03T09:02:38.273Z,6.50
2018-11-03T09:05:06.240Z,6.00
2018-11-03T09:07:34.254Z,6.80
2018-11-03T09:10:02.145Z,5.47
2018-11-03T09:12:30.036Z,5.93
2018-11-03T09:14:58.092Z,5.70
2018-11-03T09:17:25.724Z,6.07
2018-11-03T09:19:53.792Z,5.77
2018-11-03T09:22:21.807Z,5.93
2018-11-03T09:24:50.233Z,6.60
2018-11-03T09:27:18.021Z,6.30
2018-11-03T09:29:45.897Z,7.03
2018-11-03T09:32:13.452Z,6.03
2018-11-03T09:34:41.357Z,6.40
2018-11-03T09:37:09.120Z,6.07
2018-11-03T09:39:36.711Z,5.90
2018-11-03T09:42:05.525Z,6.53
2018-11-03T09:44:33.223Z,5.70
2018-11-03T09:47:01.845Z,5.67
2018-11-03T09:49:29.961Z,5.60
2018-11-03T09:51:57.572Z,6.10
2018-11-03T09:54:25.852Z,6.00
2018-11-03T09:56:53.470Z,6.13
2018-11-03T09:59:21.053Z,6.73
2018-11-03T10:01:48.816Z,6.67
2018-11-03T10:04:16.439Z,6.03
2018-11-03T10:06:45.053Z,6.37
2018-11-03T10:09:12.852Z,5.80
2018-11-03T10:11:40.396Z,5.70
2018-11-03T10:14:08.896Z,5.77
2018-11-03T10:16:36.562Z,6.87
2018-11-03T10:19:04.168Z,7.27
2018-11-03T10:21:32.037Z,6.03
2018-11-03T10:23:59.653Z,6.20
2018-11-03T10:26:27.453Z,6.67
2018-11-03T10:28:55.418Z,6.73
2018-11-03T10:31:22.960Z,6.70
2018-11-03T10:33:51.142Z,6.53
2018-11-03T10:36:19.334Z,6.87
2018-11-03T10:38:46.904Z,6.80
2018-11-03T10:41:14.581Z,6.33
2018-11-03T10:43:42.548Z,6.70
2018-11-03T10:46:10.200Z,6.17
2018-11-03T10:48:38.054Z,6.57
2018-11-03T10:51:07.450Z,6.37
2018-11-03T10:53:35.385Z,6.80
2018-11-03T10:56:02.900Z,6.57
2018-11-03T10:58:30.987Z,6.30
2018-11-03T11:01:04.304Z,5.20
2018-11-03T11:03:38.120Z,5.87
2018-11-03T11:06:11.373Z,6.40
2018-11-03T11:08:45.081Z,5.83
2018-11-03T11:11:18.392Z,6.27
2018-11-03T11:13:46.610Z,6.77
2018-11-03T11:16:14.174Z,6.80
2018-11-03T11:18:41.981Z,6.63
2018-11-03T11:21:10.953Z,6.23
2018-11-03T11:23:41.859Z,6.67
2018-11-03T11:26:09.413Z,6.17
2018-11-03T11:28:36.738Z,5.87
2018-11-03T11:31:04.326Z,7.53
2018-11-03T11:33:31.881Z,7.70
2018-11-03T11:36:01.917Z,6.70
2018-11-03T11:38:29.504Z,6.80
2018-11-03T11:40:57.023Z,7.13
2018-11-03T11:43:25.477Z,6.43
2018-11-03T11:45:53.155Z,6.67
2018-11-03T11:48:20.876Z,6.57
2018-11-03T11:50:48.852Z,7.20
2018-11-03T11:53:16.400Z,6.63
2018-11-03T11:55:43.965Z,6.90
2018-11-03T11:58:11.772Z,6.50
2018-11-03T12:00:39.446Z,7.10
2018-11-03T12:03:06.912Z,7.23
2018-11-03T12:05:34.774Z,6.73
2018-11-03T12:08:02.686Z,6.77
2018-11-03T12:10:30.264Z,7.73
2018-11-03T12:12:57.858Z,7.50
2018-11-03T12:15:25.796Z,7.33
2018-11-03T12:17:53.425Z,7.90
2018-11-03T12:20:20.909Z,7.17
2018-11-03T12:22:50.252Z,7.43
2018-11-03T12:25:17.854Z,7.07
2018-11-03T12:27:45.480Z,6.93
2018-11-03T12:30:15.144Z,7.73
2018-11-03T12:32:42.737Z,7.17
2018-11-03T12:35:10.452Z,7.17
2018-11-03T12:37:39.111Z,7.97
2018-11-03T12:40:09.625Z,7.00
2018-11-03T12:42:37.160Z,7.53
2018-11-03T12:45:06.093Z,7.83
2018-11-03T12:47:33.649Z,7.33
2018-11-03T12:50:08.287Z,7.23
2018-11-03T12:52:35.880Z,7.30
2018-11-03T12:55:03.798Z,7.27
2018-11-03T12:57:31.481Z,7.80
2018-11-03T13:00:00.154Z,7.10
2018-11-03T13:02:27.833Z,7.37
2018-11-03T13:04:55.809Z,7.93
2018-11-03T13:07:23.581Z,7.23
2018-11-03T13:09:51.253Z,7.27
2018-11-03T13:12:19.023Z,8.00
2018-11-03T13:14:46.656Z,7.23
2018-11-03T13:17:14.376Z,7.97
2018-11-03T13:19:42.280Z,7.47
2018-11-03T13:22:09.906Z,7.80
2018-11-03T13:24:37.630Z,7.27
2018-11-03T13:27:05.512Z,8.07
2018-11-03T13:29:33.080Z,8.33
2018-11-03T13:32:00.672Z,7.53
2018-11-03T13:34:28.708Z,7.23
2018-11-03T13:36:56.432Z,7.47
2018-11-03T13:39:24.139Z,8.07
2018-11-03T13:41:51.924Z,7.43
2018-11-03T13:44:19.523Z,7.70
2018-11-03T13:46:47.568Z,6.97
2018-11-03T13:49:15.191Z,6.83
2018-11-03T13:51:42.777Z,8.13
2018-11-03T13:54:10.735Z,7.67
2018-11-03T13:56:38.300Z,7.47
2018-11-03T13:59:05.860Z,7.80
2018-11-03T14:01:33.648Z,7.70
2018-11-03T14:04:08.907Z,7.60
2018-11-03T14:07:09.879Z,7.27
2018-11-03T14:09:37.405Z,7.13
2018-11-03T14:12:05.552Z,7.40
2018-11-03T14:14:33.447Z,7.20
2018-11-03T14:17:01.137Z,7.60
2018-11-03T14:19:28.722Z,7.77
2018-11-03T14:21:56.775Z,8.17
2018-11-03T14:24:24.299Z,8.03
2018-11-03T14:26:51.916Z,7.20
2018-11-03T14:29:19.840Z,8.17
2018-11-03T14:31:48.385Z,7.67
2018-11-03T14:34:16.352Z,8.70
2018-11-03T14:36:44.189Z,7.70
2018-11-03T14:39:11.787Z,7.23
2018-11-03T14:41:39.851Z,7.23
2018-11-03T14:44:07.908Z,7.17
2018-11-03T14:46:35.435Z,8.17
2018-11-03T14:49:02.968Z,7.13
2018-11-03T14:51:30.897Z,8.43
2018-11-03T14:53:58.639Z,7.87
2018-11-03T14:56:26.218Z,7.70
2018-11-03T14:58:54.109Z,5.97
2018-11-03T15:01:21.735Z,7.07
2018-11-03T15:03:49.268Z,7.20
2018-11-03T15:06:17.037Z,6.77
2018-11-03T15:08:44.880Z,7.63
2018-11-03T15:11:12.401Z,6.73
2018-11-03T15:13:40.312Z,6.83
2018-11-03T15:16:08.128Z,7.17
2018-11-03T15:18:35.644Z,7.93
2018-11-03T15:21:03.165Z,6.70
2018-11-03T15:23:31.124Z,6.47
2018-11-03T15:25:58.720Z,7.23
2018-11-03T15:28:26.325Z,6.17
2018-11-03T15:30:54.382Z,7.07
2018-11-03T15:33:22.037Z,6.90
2018-11-03T15:35:49.588Z,5.83
2018-11-03T15:38:17.400Z,5.77
2018-11-03T15:40:44.948Z,5.70
2018-11-03T15:43:12.581Z,6.13
2018-11-03T15:45:40.416Z,5.80
2018-11-03T15:48:07.968Z,5.87
2018-11-03T15:50:40.296Z,5.73
2018-11-03T15:53:07.889Z,6.87
2018-11-03T15:55:35.429Z,6.57
2018-11-03T15:58:03.280Z,5.63
2018-11-03T16:00:30.805Z,6.37
2018-11-03T16:02:59.600Z,6.27
2018-11-03T16:05:27.576Z,5.70
2018-11-03T16:07:55.868Z,6.83
2018-11-03T16:10:23.572Z,7.00
2018-11-03T16:12:51.244Z,6.07
2018-11-03T16:15:19.640Z,6.70
2018-11-03T16:17:47.211Z,6.00
2018-11-03T16:20:14.773Z,6.50
2018-11-03T16:22:43.849Z,6.30
2018-11-03T16:25:11.344Z,6.07
2018-11-03T16:27:39.758Z,5.33
2018-11-03T16:30:10.865Z,5.77
2018-11-03T16:32:38.506Z,5.87
2018-11-03T16:35:06.128Z,6.03
2018-11-03T16:37:33.968Z,6.97
2018-11-03T16:40:01.604Z,5.37
2018-11-03T16:42:29.161Z,5.23
2018-11-03T16:44:56.766Z,5.40
2018-11-03T16:47:24.368Z,5.47
2018-11-03T16:49:51.979Z,5.50
2018-11-03T16:52:19.850Z,6.47
2018-11-03T16:54:47.397Z,5.67
2018-11-03T16:57:14.994Z,5.33
2018-11-03T16:59:42.802Z,5.73
2018-11-03T17:02:10.417Z,5.23
2018-11-03T17:04:38.002Z,5.97
2018-11-03T17:07:05.908Z,5.47
2018-11-03T17:09:33.583Z,5.27
2018-11-03T17:12:02.404Z,6.73
2018-11-03T17:14:30.448Z,5.60
2018-11-03T17:16:57.976Z,5.57
2018-11-03T17:19:25.595Z,5.60
2018-11-03T17:21:53.461Z,5.93
2018-11-03T17:24:21.318Z,5.27
2018-11-03T17:26:48.848Z,5.53
2018-11-03T17:29:16.368Z,5.80
2018-11-03T17:31:44.210Z,6.17
2018-11-03T17:34:11.723Z,6.90
2018-11-03T17:36:39.236Z,6.13
2018-11-03T17:39:08.852Z,5.97
2018-11-03T17:41:36.430Z,6.40
2018-11-03T17:44:04.364Z,6.27
2018-11-03T17:46:31.922Z,7.47
2018-11-03T17:48:59.488Z,5.93
2018-11-03T17:51:27.309Z,7.93
2018-11-03T17:53:54.946Z,6.93
2018-11-03T17:56:22.461Z,7.17
2018-11-03T17:58:50.284Z,5.83
2018-11-03T18:01:18.262Z,6.37
2018-11-03T18:03:45.706Z,6.03
2018-11-03T18:06:13.524Z,5.47
2018-11-03T18:08:41.377Z,6.53
2018-11-03T18:11:08.923Z,6.40
2018-11-03T18:13:36.879Z,5.80
2018-11-03T18:16:05.709Z,6.97
2018-11-03T18:18:33.274Z,7.67
2018-11-03T18:21:00.868Z,6.87
2018-11-03T18:23:28.823Z,5.83
2018-11-03T18:25:56.456Z,7.33
2018-11-03T18:28:24.006Z,6.47
2018-11-03T18:30:51.996Z,5.83
2018-11-03T18:33:19.668Z,7.53
2018-11-03T18:35:47.081Z,6.27
2018-11-03T18:38:14.922Z,6.07
2018-11-03T18:40:42.492Z,7.47
2018-11-03T18:43:10.034Z,6.40
2018-11-03T18:45:37.823Z,6.43
2018-11-03T18:48:05.587Z,6.53
2018-11-03T18:50:33.404Z,7.40
2018-11-03T18:53:01.316Z,6.90
2018-11-03T18:55:28.849Z,5.67
2018-11-03T18:57:56.772Z,5.53
2018-11-03T19:00:24.327Z,6.83
2018-11-03T19:02:51.878Z,7.03
2018-11-03T19:05:26.841Z,8.60
2018-11-03T19:07:56.448Z,7.00
2018-11-03T19:10:24.048Z,6.53
2018-11-03T19:12:51.701Z,8.23
2018-11-03T19:15:19.330Z,8.20
2018-11-03T19:17:46.870Z,6.47
2018-11-03T19:20:15.148Z,6.03
2018-11-03T19:22:44.013Z,7.47
2018-11-03T19:25:12.908Z,7.20
2018-11-03T19:27:41.111Z,5.60
2018-11-03T19:30:10.825Z,6.23
2018-11-03T19:32:39.319Z,6.20
2018-11-03T19:35:07.289Z,6.03
2018-11-03T19:37:35.360Z,6.13
2018-11-03T19:40:03.593Z,7.43
2018-11-03T19:42:31.224Z,5.73
2018-11-03T19:44:58.872Z,6.07
2018-11-03T19:47:26.900Z,6.77
2018-11-03T19:49:54.401Z,7.10
2018-11-03T19:52:21.982Z,6.93
2018-11-03T19:54:49.783Z,7.40
2018-11-03T19:57:17.335Z,5.83
2018-11-03T19:59:44.915Z,6.23
2018-11-03T20:02:12.440Z,6.10
2018-11-03T20:04:39.972Z,5.80
2018-11-03T20:07:07.833Z,6.27
2018-11-03T20:09:35.380Z,5.53
2018-11-03T20:12:02.912Z,6.17
2018-11-03T20:14:30.580Z,7.13
2018-11-03T20:16:58.705Z,5.90
2018-11-03T20:19:26.305Z,6.10
2018-11-03T20:21:53.845Z,5.97
2018-11-03T20:24:21.433Z,5.77
2018-11-03T20:26:48.988Z,6.20
2018-11-03T20:29:16.835Z,6.27
2018-11-03T20:31:45.268Z,6.23
2018-11-03T20:34:12.793Z,6.80
2018-11-03T20:36:43.860Z,10.23
2018-11-03T20:39:11.422Z,9.90
2018-11-03T20:41:39.020Z,6.77
2018-11-03T20:44:07.348Z,7.03
2018-11-03T20:46:35.160Z,6.90
2018-11-03T20:49:02.801Z,9.40
2018-11-03T20:51:30.549Z,7.83
2018-11-03T20:54:00.540Z,5.70
2018-11-03T20:56:27.876Z,7.17
2018-11-03T20:58:55.827Z,6.07
2018-11-03T21:01:23.388Z,5.87
2018-11-03T21:03:50.920Z,6.90
2018-11-03T21:06:18.717Z,5.60
2018-11-03T21:08:47.246Z,6.20
2018-11-03T21:11:14.815Z,6.20
2018-11-03T21:13:43.350Z,6.17
2018-11-03T21:16:49.417Z,5.57
2018-11-03T21:19:18.588Z,5.13
2018-11-03T21:21:46.185Z,5.20
2018-11-03T21:24:28.708Z,6.20
2018-11-03T21:26:56.600Z,5.90
2018-11-03T21:29:24.259Z,6.93
2018-11-03T21:31:52.262Z,6.30
2018-11-03T21:34:19.801Z,6.80
2018-11-03T21:36:47.433Z,6.23
2018-11-03T21:39:15.310Z,6.30
2018-11-03T21:41:42.955Z,5.63
2018-11-03T21:44:10.572Z,6.73
2018-11-03T21:46:38.440Z,5.73
2018-11-03T21:49:06.161Z,5.97
2018-11-03T21:51:34.336Z,6.23
2018-11-03T21:54:02.449Z,5.80
2018-11-03T21:56:30.114Z,5.20
2018-11-03T21:58:58.385Z,6.70
2018-11-03T22:01:26.044Z,6.13
2018-11-03T22:03:53.640Z,6.73
2018-11-03T22:06:21.612Z,6.63
2018-11-03T22:08:49.234Z,6.43
2018-11-03T22:11:17.180Z,6.57
2018-11-03T22:13:44.913Z,6.50
2018-11-03T22:16:13.780Z,7.80
2018-11-03T22:18:41.694Z,6.50
2018-11-03T22:21:09.372Z,7.30
2018-11-03T22:23:37.133Z,7.13
2018-11-03T22:26:07.660Z,6.90
2018-11-03T22:28:36.177Z,6.50
2018-11-03T22:31:07.561Z,6.17
2018-11-03T22:33:35.113Z,6.47
2018-11-03T22:36:02.717Z,6.30
2018-11-03T22:38:31.182Z,7.07
2018-11-03T22:40:58.768Z,6.30
2018-11-03T22:43:26.304Z,7.23
2018-11-03T22:45:54.273Z,7.57
2018-11-03T22:48:21.847Z,7.53
2018-11-03T22:50:49.507Z,7.53
2018-11-03T22:53:18.111Z,7.03
2018-11-03T22:55:46.006Z,6.60
2018-11-03T22:58:13.658Z,6.40
2018-11-03T23:00:47.114Z,6.53
2018-11-03T23:03:15.108Z,6.80
2018-11-03T23:05:42.719Z,6.67
2018-11-03T23:08:10.354Z,6.70
2018-11-03T23:10:38.023Z,7.00
2018-11-03T23:13:05.711Z,6.30
2018-11-03T23:15:34.724Z,7.20
2018-11-03T23:18:02.338Z,6.63
2018-11-03T23:20:29.919Z,6.70
2018-11-03T23:22:57.862Z,6.00
2018-11-03T23:25:25.447Z,5.93
2018-11-03T23:27:53.036Z,7.20
2018-11-03T23:30:20.885Z,7.13
2018-11-03T23:32:48.436Z,7.30
2018-11-03T23:35:16.021Z,7.07
2018-11-03T23:37:43.458Z,7.67
2018-11-03T23:40:11.434Z,6.63
2018-11-03T23:42:39.045Z,7.37
2018-11-03T23:45:09.396Z,7.37
2018-11-03T23:47:37.065Z,7.77
2018-11-03T23:50:06.536Z,7.33
2018-11-03T23:52:35.081Z,6.20
2018-11-03T23:55:04.632Z,7.93
2018-11-03T23:57:32.482Z,7.40
